createdAt,value
2023-02-05T00:02:00.315Z,9.90
2023-02-05T00:04:17.390Z,9.70
2023-02-05T00:06:34.397Z,10.43
2023-02-05T00:08:51.332Z,10.18
2023-02-05T00:11:08.378Z,10.35
2023-02-05T00:13:27.669Z,10.07
2023-02-05T00:15:44.923Z,10.35
2023-02-05T00:18:02.123Z,10.85
2023-02-05T00:20:19.390Z,11.23
2023-02-05T00:22:36.470Z,10.65
2023-02-05T00:24:53.748Z,10.82
2023-02-05T00:27:10.787Z,10.65
2023-02-05T00:29:28.252Z,10.68
2023-02-05T00:31:45.312Z,10.10
2023-02-05T00:34:02.460Z,9.93
2023-02-05T00:36:19.469Z,10.05
2023-02-05T00:38:36.909Z,10.00
2023-02-05T00:40:54.071Z,10.32
2023-02-05T00:43:11.160Z,10.73
2023-02-05T00:45:29.193Z,10.50
2023-02-05T00:47:48.347Z,10.65
2023-02-05T00:50:05.571Z,10.68
2023-02-05T00:52:23.913Z,10.75
2023-02-05T00:54:41.231Z,10.45
2023-02-05T00:56:58.206Z,9.80
2023-02-05T00:59:15.130Z,10.57
2023-02-05T01:01:33.529Z,10.48
2023-02-05T01:03:55.034Z,10.13
2023-02-05T01:06:12.316Z,9.82
2023-02-05T01:08:29.696Z,11.20
2023-02-05T01:10:46.699Z,9.80
2023-02-05T01:13:03.742Z,10.30
2023-02-05T01:15:23.186Z,10.55
2023-02-05T01:17:40.356Z,11.10
2023-02-05T01:19:57.335Z,10.93
2023-02-05T01:22:14.388Z,10.77
2023-02-05T01:24:32.761Z,10.77
2023-02-05T01:26:51.323Z,10.30
2023-02-05T01:29:08.597Z,10.45
2023-02-05T01:31:26.034Z,10.13
2023-02-05T01:33:43.450Z,10.68
2023-02-05T01:36:01.571Z,10.40
2023-02-05T01:38:18.702Z,11.13
2023-02-05T01:40:35.798Z,10.50
2023-02-05T01:43:02.229Z,10.45
2023-02-05T01:45:19.177Z,11.30
2023-02-05T01:47:36.206Z,10.75
2023-02-05T01:49:59.318Z,11.05
2023-02-05T01:52:16.234Z,10.77
2023-02-05T01:54:33.620Z,10.45
2023-02-05T01:56:51.005Z,11.15
2023-02-05T01:59:10.546Z,11.48
2023-02-05T02:01:27.941Z,11.80
2023-02-05T02:03:45.134Z,11.85
2023-02-05T02:06:03.202Z,11.00
2023-02-05T02:08:20.485Z,11.65
2023-02-05T02:10:37.525Z,11.82
2023-02-05T02:12:57.921Z,11.60
2023-02-05T02:15:16.180Z,11.55
2023-02-05T02:17:34.204Z,11.98
2023-02-05T02:19:54.156Z,11.10
2023-02-05T02:22:11.465Z,11.55
2023-02-05T02:24:31.057Z,10.85
2023-02-05T02:26:48.421Z,11.10
2023-02-05T02:29:06.091Z,10.85
2023-02-05T02:31:24.480Z,11.25
2023-02-05T02:33:41.690Z,10.50
2023-02-05T02:35:58.632Z,10.90
2023-02-05T02:38:15.787Z,12.30
2023-02-05T02:40:32.734Z,11.40
2023-02-05T02:42:51.956Z,11.55
2023-02-05T02:45:10.597Z,11.32
2023-02-05T02:47:27.639Z,11.70
2023-02-05T02:49:44.624Z,11.27
2023-02-05T02:52:01.741Z,11.98
2023-02-05T02:54:18.740Z,11.27
2023-02-05T02:56:35.855Z,11.70
2023-02-05T02:58:54.324Z,12.07
2023-02-05T03:01:11.714Z,11.80
2023-02-05T03:03:34.427Z,11.32
2023-02-05T03:05:51.487Z,12.20
2023-02-05T03:08:11.505Z,12.55
2023-02-05T03:10:37.892Z,12.20
2023-02-05T03:12:58.951Z,11.75
2023-02-05T03:15:16.106Z,11.40
2023-02-05T03:17:33.556Z,11.65
2023-02-05T03:19:53.362Z,12.65
2023-02-05T03:22:10.848Z,12.70
2023-02-05T03:24:27.981Z,11.40
2023-02-05T03:26:44.923Z,11.70
2023-02-05T03:29:01.928Z,12.77
2023-02-05T03:31:18.946Z,13.10
2023-02-05T03:33:36.226Z,11.90
2023-02-05T03:35:53.231Z,12.23
2023-02-05T03:38:10.147Z,12.27
2023-02-05T03:40:27.181Z,12.00
2023-02-05T03:42:44.215Z,11.85
2023-02-05T03:45:02.499Z,12.30
2023-02-05T03:47:19.810Z,12.43
2023-02-05T03:49:37.057Z,13.18
2023-02-05T03:51:54.323Z,12.40
2023-02-05T03:54:11.716Z,12.25
2023-02-05T03:56:28.759Z,12.05
2023-02-05T03:58:45.657Z,12.32
2023-02-05T04:01:02.760Z,12.13
2023-02-05T04:03:20.101Z,12.68
2023-02-05T04:05:38.025Z,12.38
2023-02-05T04:07:56.322Z,12.55
2023-02-05T04:10:13.393Z,13.32
2023-02-05T04:12:30.414Z,12.68
2023-02-05T04:14:47.462Z,12.85
2023-02-05T04:17:04.610Z,13.15
2023-02-05T04:19:21.610Z,12.65
2023-02-05T04:21:38.644Z,13.27
2023-02-05T04:23:55.672Z,13.07
2023-02-05T04:26:12.999Z,12.45
2023-02-05T04:28:31.280Z,13.43
2023-02-05T04:30:48.578Z,12.00
2023-02-05T04:33:06.812Z,12.82
2023-02-05T04:35:24.015Z,11.82
2023-02-05T04:37:41.030Z,13.27
2023-02-05T04:39:58.066Z,13.80
2023-02-05T04:42:15.156Z,12.38
2023-02-05T04:44:32.067Z,12.93
2023-02-05T04:46:49.292Z,12.32
2023-02-05T04:49:06.295Z,12.25
2023-02-05T04:51:24.316Z,13.07
2023-02-05T04:53:42.555Z,12.63
2023-02-05T04:55:59.549Z,13.07
2023-02-05T04:58:17.642Z,12.27
2023-02-05T05:00:34.559Z,12.65
2023-02-05T05:02:51.838Z,12.55
2023-02-05T05:05:08.829Z,13.88
2023-02-05T05:07:25.864Z,12.88
2023-02-05T05:09:42.806Z,13.00
2023-02-05T05:11:59.876Z,12.93
2023-02-05T05:14:17.107Z,12.90
2023-02-05T05:16:34.227Z,12.90
2023-02-05T05:18:51.444Z,13.10
2023-02-05T05:21:08.796Z,12.73
2023-02-05T05:23:25.867Z,12.63
2023-02-05T05:25:44.180Z,12.48
2023-02-05T05:28:01.274Z,12.10
2023-02-05T05:30:18.575Z,12.23
2023-02-05T05:32:35.898Z,12.52
2023-02-05T05:34:53.298Z,13.55
2023-02-05T05:37:10.560Z,12.82
2023-02-05T05:39:27.939Z,11.27
2023-02-05T05:41:44.930Z,13.30
2023-02-05T05:44:02.094Z,12.63
2023-02-05T05:46:19.078Z,12.45
2023-02-05T05:48:36.056Z,11.90
2023-02-05T05:50:53.247Z,12.98
2023-02-05T05:53:10.440Z,12.10
2023-02-05T05:55:28.143Z,12.52
2023-02-05T05:57:45.227Z,12.23
2023-02-05T06:00:02.323Z,11.90
2023-02-05T06:02:20.864Z,12.45
2023-02-05T06:04:38.223Z,11.98
2023-02-05T06:06:55.926Z,12.77
2023-02-05T06:09:13.042Z,12.60
2023-02-05T06:11:31.488Z,13.02
2023-02-05T06:13:49.523Z,12.85
2023-02-05T06:16:06.945Z,13.27
2023-02-05T06:18:24.057Z,12.35
2023-02-05T06:20:41.312Z,12.93
2023-02-05T06:22:59.676Z,11.98
2023-02-05T06:25:18.096Z,11.95
2023-02-05T06:27:35.020Z,11.90
2023-02-05T06:29:52.195Z,11.98
2023-02-05T06:32:09.250Z,11.63
2023-02-05T06:34:26.563Z,12.02
2023-02-05T06:36:43.676Z,11.90
2023-02-05T06:39:01.056Z,12.27
2023-02-05T06:41:18.425Z,11.50
2023-02-05T06:43:35.484Z,11.93
2023-02-05T06:45:52.510Z,12.00
2023-02-05T06:48:09.759Z,11.48
2023-02-05T06:50:27.218Z,11.70
2023-02-05T06:52:45.269Z,12.23
2023-02-05T06:55:02.588Z,11.13
2023-02-05T06:57:19.904Z,10.95
2023-02-05T06:59:36.873Z,11.88
2023-02-05T07:01:54.325Z,11.45
2023-02-05T07:04:12.350Z,11.95
2023-02-05T07:06:29.755Z,11.65
2023-02-05T07:08:47.116Z,12.02
2023-02-05T07:11:05.206Z,11.55
2023-02-05T07:13:23.517Z,11.63
2023-02-05T07:15:41.468Z,11.77
2023-02-05T07:17:58.770Z,11.85
2023-02-05T07:20:16.811Z,11.45
2023-02-05T07:22:34.193Z,10.80
2023-02-05T07:24:52.524Z,12.13
2023-02-05T07:27:09.431Z,12.40
2023-02-05T07:29:26.710Z,11.38
2023-02-05T07:31:44.055Z,12.30
2023-02-05T07:34:01.185Z,13.48
2023-02-05T07:36:19.119Z,12.48
2023-02-05T07:38:38.564Z,11.30
2023-02-05T07:40:56.560Z,11.32
2023-02-05T07:43:14.275Z,11.52
2023-02-05T07:45:31.729Z,11.57
2023-02-05T07:47:49.771Z,11.40
2023-02-05T07:50:07.140Z,12.43
2023-02-05T07:52:24.433Z,12.05
2023-02-05T07:54:41.706Z,12.98
2023-02-05T07:56:58.708Z,11.98
2023-02-05T07:59:15.968Z,12.52
2023-02-05T08:01:33.080Z,12.40
2023-02-05T08:03:51.047Z,12.38
2023-02-05T08:06:08.382Z,12.60
2023-02-05T08:08:25.711Z,12.10
2023-02-05T08:10:43.002Z,11.63
2023-02-05T08:13:01.385Z,12.07
2023-02-05T08:15:18.433Z,12.32
2023-02-05T08:17:35.778Z,12.05
2023-02-05T08:19:55.586Z,12.30
2023-02-05T08:22:13.486Z,12.10
2023-02-05T08:24:30.782Z,12.75
2023-02-05T08:26:50.144Z,13.80
2023-02-05T08:29:07.156Z,13.25
2023-02-05T08:31:24.240Z,13.50
2023-02-05T08:33:41.345Z,13.57
2023-02-05T08:35:58.339Z,12.63
2023-02-05T08:38:15.726Z,12.82
2023-02-05T08:40:33.562Z,12.70
2023-02-05T08:42:50.861Z,13.02
2023-02-05T08:45:08.245Z,13.70
2023-02-05T08:47:25.354Z,15.35
2023-02-05T08:49:43.234Z,16.23
2023-02-05T08:52:00.264Z,20.30
2023-02-05T08:54:17.333Z,23.05
2023-02-05T08:56:34.621Z,26.10
2023-02-05T08:58:53.012Z,21.50
2023-02-05T09:01:10.353Z,15.98
2023-02-05T09:03:27.314Z,12.85
2023-02-05T09:05:44.429Z,13.23
2023-02-05T09:08:01.553Z,13.05
2023-02-05T09:10:18.610Z,12.98
2023-02-05T09:12:35.982Z,11.50
2023-02-05T09:14:53.216Z,11.25
2023-02-05T09:17:10.287Z,11.00
2023-02-05T09:19:27.417Z,12.25
2023-02-05T09:21:44.823Z,11.98
2023-02-05T09:24:02.190Z,11.93
2023-02-05T09:26:19.498Z,11.80
2023-02-05T09:28:36.406Z,11.63
2023-02-05T09:30:53.573Z,11.00
2023-02-05T09:33:10.790Z,11.27
2023-02-05T09:35:27.890Z,12.15
2023-02-05T09:37:44.960Z,11.27
2023-02-05T09:40:20.137Z,11.75
2023-02-05T09:42:38.791Z,11.90
2023-02-05T09:44:55.926Z,12.30
2023-02-05T09:47:13.035Z,12.25
2023-02-05T09:49:31.067Z,12.40
2023-02-05T09:51:48.173Z,12.00
2023-02-05T09:54:06.212Z,12.73
2023-02-05T09:56:23.216Z,12.77
2023-02-05T09:58:40.318Z,13.00
2023-02-05T10:00:57.497Z,12.63
2023-02-05T10:03:14.700Z,12.07
2023-02-05T10:05:32.389Z,12.90
2023-02-05T10:07:49.686Z,12.73
2023-02-05T10:10:08.297Z,14.07
2023-02-05T10:12:26.386Z,13.30
2023-02-05T10:14:43.656Z,13.93
2023-02-05T10:17:01.809Z,13.00
2023-02-05T10:19:18.800Z,13.75
2023-02-05T10:21:36.113Z,13.05
2023-02-05T10:23:53.127Z,13.73
2023-02-05T10:26:10.424Z,13.95
2023-02-05T10:28:28.069Z,13.85
2023-02-05T10:30:45.148Z,13.82
2023-02-05T10:33:02.615Z,14.40
2023-02-05T10:35:19.744Z,14.82
2023-02-05T10:37:37.116Z,16.00
2023-02-05T10:39:55.193Z,15.10
2023-02-05T10:42:13.234Z,16.13
2023-02-05T10:44:32.129Z,15.35
2023-02-05T10:46:49.479Z,17.23
2023-02-05T10:49:06.820Z,16.33
2023-02-05T10:51:24.129Z,17.98
2023-02-05T10:53:41.160Z,16.60
2023-02-05T10:55:59.484Z,17.23
2023-02-05T10:58:16.758Z,17.15
2023-02-05T11:00:33.991Z,15.82
2023-02-05T11:02:51.603Z,16.63
2023-02-05T11:05:08.531Z,14.40
2023-02-05T11:07:26.530Z,14.07
2023-02-05T11:09:43.701Z,14.32
2023-02-05T11:12:00.709Z,13.80
2023-02-05T11:14:17.805Z,9.68
2023-02-05T11:16:34.887Z,12.95
2023-02-05T11:18:52.984Z,10.63
2023-02-05T11:21:12.029Z,7.13
2023-02-05T11:23:30.301Z,5.60
2023-02-05T11:25:47.500Z,4.78
2023-02-05T11:28:05.391Z,4.93
2023-02-05T11:30:47.675Z,3.63
2023-02-05T11:32:59.608Z,3.45
2023-02-05T11:35:16.669Z,2.58
2023-02-05T11:37:34.642Z,2.60
2023-02-05T11:39:51.564Z,2.20
2023-02-05T11:42:10.900Z,2.00
2023-02-05T11:44:30.105Z,1.85
2023-02-05T11:46:49.654Z,1.92
2023-02-05T11:49:08.236Z,1.80
2023-02-05T11:51:26.758Z,1.90
2023-02-05T11:53:45.818Z,2.00
2023-02-05T11:56:03.284Z,2.22
2023-02-05T11:58:28.345Z,2.20
2023-02-05T12:00:49.818Z,1.98
2023-02-05T12:03:06.970Z,1.90
2023-02-05T12:05:24.252Z,1.65
2023-02-05T12:07:41.547Z,1.90
2023-02-05T12:09:58.643Z,1.85
2023-02-05T12:12:17.011Z,1.92
2023-02-05T12:14:34.103Z,1.88
2023-02-05T12:16:52.489Z,1.45
2023-02-05T12:19:10.470Z,1.40
2023-02-05T12:21:28.876Z,1.80
2023-02-05T12:23:45.983Z,1.48
2023-02-05T12:26:02.949Z,1.70
2023-02-05T12:28:20.177Z,1.73
2023-02-05T12:30:38.291Z,1.60
2023-02-05T12:32:55.255Z,1.58
2023-02-05T12:35:12.609Z,1.20
2023-02-05T12:37:29.823Z,1.35
2023-02-05T12:39:47.271Z,1.33
2023-02-05T12:42:04.326Z,1.10
2023-02-05T12:44:22.339Z,1.10
2023-02-05T12:46:39.777Z,1.08
2023-02-05T12:48:58.275Z,1.15
2023-02-05T12:51:16.396Z,1.10
2023-02-05T12:53:33.755Z,0.95
2023-02-05T12:55:50.790Z,0.80
2023-02-05T12:58:09.561Z,0.95
2023-02-05T13:00:27.701Z,1.13
2023-02-05T13:02:44.798Z,1.08
2023-02-05T13:05:02.782Z,0.90
2023-02-05T13:07:19.918Z,2.63
2023-02-05T13:09:38.209Z,3.78
2023-02-05T13:11:55.232Z,3.10
2023-02-05T13:14:13.545Z,2.10
2023-02-05T13:16:30.969Z,1.30
2023-02-05T13:18:49.714Z,1.10
2023-02-05T13:21:06.981Z,1.00
2023-02-05T13:23:24.269Z,1.00
2023-02-05T13:25:41.878Z,1.20
2023-02-05T13:27:59.053Z,1.02
2023-02-05T13:30:16.121Z,2.05
2023-02-05T13:32:33.513Z,8.45
2023-02-05T13:34:50.640Z,8.77
2023-02-05T13:37:10.317Z,24.52
2023-02-05T13:39:34.289Z,16.38
2023-02-05T13:44:08.696Z,28.08
2023-02-05T13:46:25.999Z,18.08
2023-02-05T13:48:43.449Z,7.57
2023-02-05T13:51:03.015Z,2.10
2023-02-05T13:53:21.775Z,2.05
2023-02-05T13:55:40.238Z,1.85
2023-02-05T13:57:57.539Z,1.50
2023-02-05T14:00:16.044Z,1.05
2023-02-05T14:02:33.140Z,1.00
2023-02-05T14:04:50.226Z,1.35
2023-02-05T14:07:07.259Z,1.50
2023-02-05T14:09:24.321Z,1.15
2023-02-05T14:11:41.643Z,1.20
2023-02-05T14:13:58.834Z,1.70
2023-02-05T14:16:16.796Z,1.30
2023-02-05T14:18:34.006Z,2.53
2023-02-05T14:20:52.062Z,1.65
2023-02-05T14:23:09.436Z,1.20
2023-02-05T14:25:26.783Z,2.58
2023-02-05T14:27:44.182Z,3.97
2023-02-05T14:30:01.554Z,15.90
2023-02-05T14:32:18.564Z,4.63
2023-02-05T14:34:35.599Z,3.78
2023-02-05T14:36:53.732Z,3.38
2023-02-05T14:39:11.572Z,3.83
2023-02-05T14:41:28.911Z,3.85
2023-02-05T14:43:46.330Z,4.18
2023-02-05T14:46:03.859Z,4.65
2023-02-05T14:48:21.808Z,2.88
2023-02-05T14:50:39.207Z,10.05
2023-02-05T14:52:56.334Z,5.55
2023-02-05T14:55:13.391Z,5.00
2023-02-05T14:57:31.836Z,5.93
2023-02-05T14:59:48.847Z,10.00
2023-02-05T15:02:06.198Z,5.25
2023-02-05T15:04:23.994Z,3.90
2023-02-05T15:06:41.007Z,4.32
2023-02-05T15:08:58.286Z,6.65
2023-02-05T15:11:15.239Z,6.20
2023-02-05T15:13:32.313Z,7.32
2023-02-05T15:15:49.615Z,4.40
2023-02-05T15:18:07.726Z,4.10
2023-02-05T15:20:24.792Z,9.25
2023-02-05T15:22:42.110Z,6.72
2023-02-05T15:24:59.457Z,6.13
2023-02-05T15:27:16.467Z,5.13
2023-02-05T15:29:33.570Z,6.60
2023-02-05T15:31:50.661Z,7.20
2023-02-05T15:34:08.355Z,10.02
2023-02-05T15:36:25.309Z,24.58
2023-02-05T15:38:42.336Z,19.30
2023-02-05T15:40:59.320Z,6.47
2023-02-05T15:43:17.551Z,5.68
2023-02-05T15:45:35.161Z,8.18
2023-02-05T15:47:52.466Z,3.80
2023-02-05T15:50:09.523Z,6.18
2023-02-05T15:52:26.983Z,13.60
2023-02-05T15:54:45.224Z,8.25
2023-02-05T15:57:02.346Z,10.00
2023-02-05T15:59:19.694Z,10.48
2023-02-05T16:01:36.945Z,9.45
2023-02-05T16:03:54.902Z,8.52
2023-02-05T16:06:12.244Z,5.57
2023-02-05T16:08:29.455Z,4.97
2023-02-05T16:10:46.869Z,8.57
2023-02-05T16:13:04.411Z,5.50
2023-02-05T16:15:21.410Z,4.00
2023-02-05T16:17:38.806Z,4.65
2023-02-05T16:19:55.863Z,3.78
2023-02-05T16:22:12.857Z,3.90
2023-02-05T16:24:30.110Z,3.25
2023-02-05T16:26:47.430Z,2.85
2023-02-05T16:29:11.645Z,3.42
2023-02-05T16:31:37.639Z,5.60
2023-02-05T16:33:54.770Z,4.05
2023-02-05T16:36:11.695Z,6.45
2023-02-05T16:38:29.485Z,5.00
2023-02-05T16:40:46.456Z,4.55
2023-02-05T16:43:03.470Z,3.67
2023-02-05T16:45:20.846Z,4.47
2023-02-05T16:47:37.889Z,3.88
2023-02-05T16:49:56.767Z,4.18
2023-02-05T16:52:14.105Z,3.10
2023-02-05T16:54:31.417Z,3.40
2023-02-05T16:56:48.448Z,3.70
2023-02-05T16:59:05.732Z,3.20
2023-02-05T17:01:23.667Z,3.28
2023-02-05T17:03:41.963Z,3.55
2023-02-05T17:05:59.195Z,3.47
2023-02-05T17:08:16.251Z,3.20
2023-02-05T17:10:33.456Z,2.70
2023-02-05T17:12:50.908Z,3.00
2023-02-05T17:15:08.560Z,3.53
2023-02-05T17:17:25.918Z,2.65
2023-02-05T17:19:42.917Z,2.67
2023-02-05T17:22:00.261Z,2.97
2023-02-05T17:24:17.469Z,3.20
2023-02-05T17:26:34.461Z,3.15
2023-02-05T17:28:52.452Z,3.95
2023-02-05T17:31:09.528Z,3.55
2023-02-05T17:33:26.568Z,3.40
2023-02-05T17:35:43.574Z,3.67
2023-02-05T17:38:00.871Z,3.10
2023-02-05T17:40:17.942Z,3.67
2023-02-05T17:42:35.001Z,3.03
2023-02-05T17:44:52.042Z,2.88
2023-02-05T17:47:09.305Z,2.92
2023-02-05T17:49:26.380Z,3.15
2023-02-05T17:51:43.578Z,2.90
2023-02-05T17:54:00.483Z,2.92
2023-02-05T17:56:17.414Z,2.60
2023-02-05T17:58:34.754Z,2.60
2023-02-05T18:00:51.811Z,2.50
2023-02-05T18:03:09.840Z,2.70
2023-02-05T18:05:26.773Z,2.22
2023-02-05T18:07:44.290Z,2.53
2023-02-05T18:10:01.208Z,2.28
2023-02-05T18:12:19.153Z,2.60
2023-02-05T18:14:37.335Z,2.53
2023-02-05T18:16:54.294Z,2.72
2023-02-05T18:19:11.344Z,2.53
2023-02-05T18:21:28.391Z,3.00
2023-02-05T18:23:45.624Z,2.60
2023-02-05T18:26:02.908Z,2.50
2023-02-05T18:28:20.177Z,2.78
2023-02-05T18:30:38.558Z,2.55
2023-02-05T18:32:56.826Z,2.53
2023-02-05T18:35:13.929Z,3.10
2023-02-05T18:37:30.963Z,3.33
2023-02-05T18:39:47.891Z,3.42
2023-02-05T18:42:05.091Z,3.40
2023-02-05T18:44:23.170Z,3.25
2023-02-05T18:46:40.174Z,3.38
2023-02-05T18:48:57.400Z,3.22
2023-02-05T18:51:15.658Z,3.33
2023-02-05T18:53:33.004Z,3.05
2023-02-05T18:55:50.021Z,3.00
2023-02-05T18:58:06.992Z,2.75
2023-02-05T19:00:24.010Z,2.00
2023-02-05T19:02:41.030Z,2.00
2023-02-05T19:04:58.150Z,1.60
2023-02-05T19:07:16.441Z,1.55
2023-02-05T19:09:33.465Z,1.80
2023-02-05T19:11:50.795Z,1.55
2023-02-05T19:14:07.855Z,1.88
2023-02-05T19:16:24.835Z,1.95
2023-02-05T19:18:41.884Z,2.20
2023-02-05T19:20:58.985Z,2.33
2023-02-05T19:23:16.247Z,2.45
2023-02-05T19:25:33.323Z,2.20
2023-02-05T19:27:50.378Z,2.20
2023-02-05T19:30:07.451Z,2.00
2023-02-05T19:32:25.488Z,2.10
2023-02-05T19:34:42.674Z,3.17
2023-02-05T19:36:59.697Z,3.45
2023-02-05T19:39:17.037Z,4.65
2023-02-05T19:41:34.036Z,3.90
2023-02-05T19:43:52.112Z,3.33
2023-02-05T19:46:09.176Z,3.60
2023-02-05T19:48:26.157Z,3.40
2023-02-05T19:50:43.182Z,3.10
2023-02-05T19:53:00.428Z,3.10
2023-02-05T19:55:17.456Z,3.30
2023-02-05T19:57:34.502Z,3.58
2023-02-05T19:59:51.492Z,3.97
2023-02-05T20:02:08.769Z,3.92
2023-02-05T20:04:25.739Z,4.40
2023-02-05T20:06:43.095Z,3.53
2023-02-05T20:09:00.369Z,3.85
2023-02-05T20:11:17.348Z,4.07
2023-02-05T20:13:34.309Z,4.53
2023-02-05T20:15:51.714Z,4.60
2023-02-05T20:18:08.774Z,4.20
2023-02-05T20:20:33.489Z,4.22
2023-02-05T20:22:50.604Z,4.22
2023-02-05T20:25:07.561Z,4.18
2023-02-05T20:27:25.109Z,3.63
2023-02-05T20:29:42.045Z,3.50
2023-02-05T20:31:59.163Z,3.70
2023-02-05T20:34:17.117Z,3.30
2023-02-05T20:36:34.479Z,3.50
2023-02-05T20:38:51.627Z,3.60
2023-02-05T20:41:08.662Z,3.65
2023-02-05T20:43:25.733Z,3.55
2023-02-05T20:45:42.697Z,3.63
2023-02-05T20:47:59.607Z,3.50
2023-02-05T20:50:16.689Z,3.45
2023-02-05T20:52:33.770Z,3.42
2023-02-05T20:54:51.033Z,3.22
2023-02-05T20:57:08.318Z,3.88
2023-02-05T20:59:26.295Z,3.25
2023-02-05T21:01:43.591Z,3.95
2023-02-05T21:04:00.599Z,3.97
2023-02-05T21:06:17.588Z,4.22
2023-02-05T21:08:34.539Z,3.50
2023-02-05T21:10:51.898Z,3.95
2023-02-05T21:13:09.212Z,3.85
2023-02-05T21:15:26.226Z,3.95
2023-02-05T21:17:43.490Z,3.85
2023-02-05T21:20:00.550Z,3.72
2023-02-05T21:22:18.792Z,3.90
2023-02-05T21:24:36.095Z,3.97
2023-02-05T21:26:53.167Z,4.18
2023-02-05T21:29:10.284Z,4.00
2023-02-05T21:31:28.180Z,3.80
2023-02-05T21:33:45.495Z,3.95
2023-02-05T21:36:02.438Z,3.78
2023-02-05T21:38:19.725Z,4.40
2023-02-05T21:40:36.929Z,4.38
2023-02-05T21:42:53.942Z,4.30
2023-02-05T21:45:10.924Z,4.00
2023-02-05T21:47:27.890Z,4.45
2023-02-05T21:49:44.852Z,4.30
2023-02-05T21:52:02.211Z,4.57
2023-02-05T21:54:20.469Z,5.07
2023-02-05T21:56:37.369Z,4.00
2023-02-05T21:58:54.388Z,4.85
2023-02-05T22:01:11.597Z,4.65
2023-02-05T22:03:28.663Z,4.63
2023-02-05T22:05:46.725Z,4.60
2023-02-05T22:08:03.694Z,4.63
2023-02-05T22:10:21.001Z,4.85
2023-02-05T22:12:38.242Z,5.10
2023-02-05T22:14:55.539Z,4.40
2023-02-05T22:17:12.783Z,4.88
2023-02-05T22:19:31.014Z,4.45
2023-02-05T22:21:48.047Z,4.93
2023-02-05T22:24:05.027Z,4.05
2023-02-05T22:26:22.130Z,4.18
2023-02-05T22:28:39.118Z,4.32
2023-02-05T22:30:56.078Z,4.40
2023-02-05T22:33:13.086Z,4.97
2023-02-05T22:35:30.087Z,4.30
2023-02-05T22:37:47.294Z,3.90
2023-02-05T22:40:04.289Z,4.18
2023-02-05T22:42:21.367Z,4.60
2023-02-05T22:44:38.382Z,4.30
2023-02-05T22:46:56.377Z,4.00
2023-02-05T22:49:13.374Z,3.85
2023-02-05T22:51:30.454Z,3.92
2023-02-05T22:53:47.690Z,3.80
2023-02-05T22:56:04.717Z,3.47
2023-02-05T22:58:21.975Z,3.50
2023-02-05T23:00:38.943Z,3.60
2023-02-05T23:02:55.933Z,3.22
2023-02-05T23:05:13.177Z,3.45
2023-02-05T23:07:30.478Z,3.40
2023-02-05T23:09:47.762Z,3.53
2023-02-05T23:12:04.719Z,3.53
2023-02-05T23:14:21.777Z,3.55
2023-02-05T23:16:38.757Z,3.92
2023-02-05T23:18:55.732Z,3.60
2023-02-05T23:21:13.988Z,3.70
2023-02-05T23:23:30.964Z,3.40
2023-02-05T23:25:47.994Z,3.60
2023-02-05T23:28:05.343Z,3.58
2023-02-05T23:30:22.328Z,3.55
2023-02-05T23:32:39.597Z,3.75
2023-02-05T23:34:56.671Z,3.47
2023-02-05T23:37:13.650Z,3.50
2023-02-05T23:39:30.847Z,3.63
2023-02-05T23:41:48.058Z,3.10
2023-02-05T23:44:05.255Z,3.10
2023-02-05T23:46:22.351Z,3.58
2023-02-05T23:48:39.384Z,2.75
2023-02-05T23:50:56.330Z,3.25
2023-02-05T23:53:13.380Z,3.40
2023-02-05T23:55:30.688Z,3.63
2023-02-05T23:57:47.649Z,3.10
